createdAt,value
2022-09-26T00:02:04.898Z,4.43
2022-09-26T00:04:34.733Z,5.05
2022-09-26T00:07:04.626Z,5.43
2022-09-26T00:09:34.317Z,5.47
2022-09-26T00:12:05.370Z,4.20
2022-09-26T00:14:36.462Z,4.60
2022-09-26T00:17:10.263Z,4.18
2022-09-26T00:19:40.232Z,4.82
2022-09-26T00:22:10.002Z,5.18
2022-09-26T00:24:39.785Z,5.35
2022-09-26T00:27:10.344Z,5.43
2022-09-26T00:29:40.616Z,5.22
2022-09-26T00:32:10.944Z,5.82
2022-09-26T00:34:41.728Z,4.70
2022-09-26T00:37:11.548Z,5.68
2022-09-26T00:39:41.313Z,4.38
2022-09-26T00:42:17.431Z,4.88
2022-09-26T00:44:52.207Z,5.25
2022-09-26T00:47:46.290Z,5.78
2022-09-26T00:50:27.573Z,4.68
2022-09-26T00:53:06.182Z,5.05
2022-09-26T00:55:41.083Z,5.85
2022-09-26T00:58:20.324Z,6.97
2022-09-26T01:00:53.412Z,7.68
2022-09-26T01:03:26.124Z,5.10
2022-09-26T01:05:56.504Z,5.80
2022-09-26T01:08:40.023Z,5.93
2022-09-26T01:11:16.170Z,5.80
2022-09-26T01:13:47.330Z,6.38
2022-09-26T01:16:17.133Z,5.32
2022-09-26T01:18:47.607Z,6.93
2022-09-26T01:21:19.887Z,5.85
2022-09-26T01:24:12.442Z,5.43
2022-09-26T01:26:54.786Z,5.13
2022-09-26T01:29:51.867Z,5.50
2022-09-26T01:32:53.184Z,6.53
2022-09-26T01:35:53.235Z,6.85
2022-09-26T01:38:31.916Z,6.20
2022-09-26T01:41:10.985Z,5.88
2022-09-26T01:44:09.174Z,6.72
2022-09-26T01:46:57.190Z,6.30
2022-09-26T01:49:33.585Z,7.05
2022-09-26T01:52:22.258Z,8.52
2022-09-26T01:55:18.196Z,7.13
2022-09-26T01:57:56.898Z,6.82
2022-09-26T02:00:27.115Z,7.57
2022-09-26T02:03:01.672Z,6.82
2022-09-26T02:05:36.882Z,5.95
2022-09-26T02:08:25.584Z,6.32
2022-09-26T02:11:07.593Z,6.38
2022-09-26T02:13:53.085Z,6.70
2022-09-26T02:16:30.230Z,7.03
2022-09-26T02:19:07.259Z,6.45
2022-09-26T02:21:38.185Z,6.47
2022-09-26T02:24:08.168Z,5.90
2022-09-26T02:26:38.261Z,6.85
2022-09-26T02:29:09.405Z,5.43
2022-09-26T02:32:04.561Z,5.50
2022-09-26T02:34:35.266Z,6.43
2022-09-26T02:37:06.706Z,6.75
2022-09-26T02:39:38.219Z,6.00
2022-09-26T02:42:30.335Z,5.93
2022-09-26T02:45:07.356Z,5.85
2022-09-26T02:48:09.317Z,6.53
2022-09-26T02:51:16.080Z,6.63
2022-09-26T02:56:44.669Z,7.13
2022-09-26T02:59:50.366Z,6.60
2022-09-26T03:02:36.269Z,7.15
2022-09-26T03:05:27.412Z,6.28
2022-09-26T03:08:10.377Z,6.90
2022-09-26T03:10:43.860Z,7.65
2022-09-26T03:13:16.514Z,7.45
2022-09-26T03:15:53.275Z,6.53
2022-09-26T03:18:37.872Z,7.32
2022-09-26T03:21:09.334Z,7.25
2022-09-26T03:23:40.195Z,7.50
2022-09-26T03:26:25.674Z,7.75
2022-09-26T03:29:00.353Z,6.85
2022-09-26T03:31:32.953Z,7.15
2022-09-26T03:34:12.655Z,6.93
2022-09-26T03:36:42.528Z,5.80
2022-09-26T03:39:14.752Z,6.18
2022-09-26T03:41:53.325Z,7.60
2022-09-26T03:44:31.487Z,7.45
2022-09-26T03:47:10.516Z,6.72
2022-09-26T03:49:46.428Z,6.55
2022-09-26T03:52:16.353Z,6.32
2022-09-26T03:54:47.973Z,6.55
2022-09-26T03:57:19.204Z,6.38
2022-09-26T03:59:56.333Z,7.15
2022-09-26T04:05:15.031Z,5.65
2022-09-26T04:07:46.771Z,6.53
2022-09-26T04:10:17.400Z,5.60
2022-09-26T04:12:47.145Z,6.82
2022-09-26T04:15:18.290Z,6.10
2022-09-26T04:17:48.383Z,5.07
2022-09-26T04:20:21.554Z,5.40
2022-09-26T04:22:52.080Z,5.85
2022-09-26T04:25:21.774Z,5.60
2022-09-26T04:27:53.442Z,5.90
2022-09-26T04:30:24.166Z,5.43
2022-09-26T04:32:58.420Z,5.45
2022-09-26T04:35:45.649Z,5.10
2022-09-26T04:38:16.342Z,5.10
2022-09-26T04:40:47.368Z,5.15
2022-09-26T04:43:18.257Z,6.53
2022-09-26T04:45:48.506Z,6.05
2022-09-26T04:48:18.735Z,5.80
2022-09-26T04:51:09.482Z,5.93
2022-09-26T04:53:40.600Z,6.40
2022-09-26T04:56:19.733Z,5.75
2022-09-26T04:58:50.549Z,5.43
2022-09-26T05:01:22.291Z,6.30
2022-09-26T05:04:16.248Z,6.00
2022-09-26T05:06:46.349Z,5.63
2022-09-26T05:09:25.302Z,5.57
2022-09-26T05:12:00.914Z,5.65
2022-09-26T05:14:31.999Z,4.65
2022-09-26T05:17:03.177Z,5.30
2022-09-26T05:19:34.005Z,4.82
2022-09-26T05:22:33.539Z,4.97
2022-09-26T05:25:24.535Z,4.88
2022-09-26T05:27:54.929Z,5.57
2022-09-26T05:30:26.970Z,5.57
2022-09-26T05:32:58.918Z,5.93
2022-09-26T05:35:29.226Z,4.95
2022-09-26T05:38:05.909Z,5.60
2022-09-26T05:40:57.080Z,5.68
2022-09-26T05:43:37.171Z,6.47
2022-09-26T05:46:12.739Z,4.43
2022-09-26T05:48:49.257Z,5.00
2022-09-26T05:51:23.239Z,5.30
2022-09-26T05:53:54.710Z,4.65
2022-09-26T05:56:27.870Z,5.72
2022-09-26T05:59:20.323Z,5.75
2022-09-26T06:02:28.773Z,5.18
2022-09-26T06:05:17.282Z,4.95
2022-09-26T06:08:05.633Z,5.28
2022-09-26T06:10:59.680Z,5.22
2022-09-26T06:13:31.582Z,5.13
2022-09-26T06:16:12.625Z,5.57
2022-09-26T06:18:43.254Z,4.97
2022-09-26T06:21:15.539Z,4.25
2022-09-26T06:23:47.002Z,5.55
2022-09-26T06:26:24.682Z,4.80
2022-09-26T06:29:01.734Z,5.18
2022-09-26T06:31:36.298Z,4.60
2022-09-26T06:34:14.120Z,4.28
2022-09-26T06:36:52.877Z,3.80
2022-09-26T06:39:23.280Z,4.88
2022-09-26T06:41:53.163Z,4.78
2022-09-26T06:44:45.718Z,4.53
2022-09-26T06:47:38.467Z,3.90
2022-09-26T06:50:27.457Z,3.30
2022-09-26T06:53:13.379Z,3.88
2022-09-26T06:55:43.332Z,3.47
2022-09-26T06:58:13.313Z,2.63
2022-09-26T07:01:03.677Z,2.97
2022-09-26T07:03:54.287Z,2.97
2022-09-26T07:06:53.430Z,2.42
2022-09-26T07:09:23.794Z,2.10
2022-09-26T07:12:13.957Z,2.00
2022-09-26T07:14:47.905Z,2.35
2022-09-26T07:17:28.252Z,2.22
2022-09-26T07:20:19.373Z,2.25
2022-09-26T07:23:21.852Z,2.00
2022-09-26T07:25:54.260Z,2.00
2022-09-26T07:28:24.117Z,2.33
2022-09-26T07:30:59.028Z,2.47
2022-09-26T07:33:55.122Z,2.50
2022-09-26T07:36:25.533Z,1.92
2022-09-26T07:38:56.081Z,3.00
2022-09-26T07:41:25.867Z,2.25
2022-09-26T07:47:03.901Z,2.30
2022-09-26T07:49:52.209Z,2.42
2022-09-26T07:52:51.022Z,2.13
2022-09-26T07:56:00.798Z,2.47
2022-09-26T07:58:55.523Z,2.30
2022-09-26T08:01:42.339Z,2.60
2022-09-26T08:04:49.047Z,2.30
2022-09-26T08:07:22.352Z,3.10
2022-09-26T08:10:05.269Z,2.83
2022-09-26T08:13:02.732Z,2.50
2022-09-26T08:16:05.852Z,2.28
2022-09-26T08:18:42.093Z,2.60
2022-09-26T08:21:12.444Z,2.72
2022-09-26T08:23:42.146Z,2.10
2022-09-26T08:26:30.360Z,2.72
2022-09-26T08:29:07.729Z,2.60
2022-09-26T08:31:37.874Z,2.20
2022-09-26T08:34:09.035Z,2.15
2022-09-26T08:36:39.166Z,3.25
2022-09-26T08:39:31.232Z,3.10
2022-09-26T08:42:44.447Z,2.70
2022-09-26T08:46:08.608Z,2.58
2022-09-26T08:49:23.443Z,3.00
2022-09-26T08:51:57.572Z,2.65
2022-09-26T08:54:37.612Z,2.53
2022-09-26T08:57:27.789Z,2.55
2022-09-26T08:59:57.910Z,3.13
2022-09-26T09:02:53.089Z,2.97
2022-09-26T09:05:28.555Z,2.28
2022-09-26T09:08:00.733Z,2.67
2022-09-26T09:10:47.171Z,2.67
2022-09-26T09:13:46.802Z,2.95
2022-09-26T09:17:03.254Z,2.55
2022-09-26T09:20:27.698Z,2.85
2022-09-26T09:23:54.087Z,3.35
2022-09-26T09:30:00.054Z,3.00
2022-09-26T09:33:02.334Z,3.10
2022-09-26T09:36:15.967Z,2.60
2022-09-26T09:39:09.412Z,2.85
2022-09-26T09:41:59.711Z,3.13
2022-09-26T09:44:40.962Z,3.22
2022-09-26T09:47:20.549Z,2.70
2022-09-26T09:49:53.090Z,2.47
2022-09-26T09:52:47.406Z,2.90
2022-09-26T09:55:54.121Z,3.67
2022-09-26T09:58:47.513Z,3.45
2022-09-26T10:01:42.764Z,4.57
2022-09-26T10:04:37.443Z,3.47
2022-09-26T10:07:08.229Z,3.10
2022-09-26T10:09:43.175Z,3.25
2022-09-26T10:12:34.152Z,3.90
2022-09-26T10:15:28.608Z,2.60
2022-09-26T10:18:25.649Z,3.08
2022-09-26T10:21:18.937Z,2.30
2022-09-26T10:23:51.792Z,2.88
2022-09-26T10:26:53.808Z,2.80
2022-09-26T10:29:37.871Z,2.28
2022-09-26T10:32:10.744Z,2.97
2022-09-26T10:34:43.990Z,2.47
2022-09-26T10:37:26.904Z,2.30
2022-09-26T10:40:43.188Z,2.70
2022-09-26T10:43:53.248Z,2.80
2022-09-26T10:46:52.518Z,2.63
2022-09-26T10:49:54.319Z,4.45
2022-09-26T10:55:38.800Z,3.25
2022-09-26T10:58:18.489Z,2.33
2022-09-26T11:00:54.088Z,2.47
2022-09-26T11:03:42.375Z,2.17
2022-09-26T11:06:38.162Z,3.25
2022-09-26T11:09:25.021Z,2.28
2022-09-26T11:12:30.682Z,1.80
2022-09-26T11:15:14.944Z,2.20
2022-09-26T11:17:50.816Z,2.70
2022-09-26T11:20:48.935Z,1.80
2022-09-26T11:23:42.655Z,1.90
2022-09-26T11:26:36.838Z,2.22
2022-09-26T11:29:35.544Z,1.90
2022-09-26T11:32:21.171Z,2.22
2022-09-26T11:35:04.270Z,8.85
2022-09-26T11:38:15.653Z,2.92
2022-09-26T11:41:08.334Z,1.73
2022-09-26T11:43:50.159Z,3.00
2022-09-26T11:47:15.373Z,1.88
2022-09-26T11:50:04.589Z,1.75
2022-09-26T11:53:04.254Z,1.58
2022-09-26T11:55:53.963Z,1.85
2022-09-26T11:58:49.201Z,1.77
2022-09-26T12:01:31.953Z,1.98
2022-09-26T12:04:28.763Z,2.10
2022-09-26T12:07:12.143Z,2.90
2022-09-26T12:10:02.950Z,1.60
2022-09-26T12:12:42.577Z,2.10
2022-09-26T12:15:30.736Z,1.67
2022-09-26T12:18:29.872Z,1.73
2022-09-26T12:21:23.872Z,1.50
2022-09-26T12:23:58.467Z,1.80
2022-09-26T12:26:31.275Z,1.80
2022-09-26T12:29:19.364Z,1.90
2022-09-26T12:34:38.695Z,1.95
2022-09-26T12:37:20.352Z,1.95
2022-09-26T12:40:12.076Z,2.30
2022-09-26T12:43:06.294Z,1.70
2022-09-26T12:45:58.331Z,1.42
2022-09-26T12:49:12.106Z,2.67
2022-09-26T12:51:44.345Z,2.35
2022-09-26T12:54:38.268Z,2.05
2022-09-26T13:00:01.500Z,1.77
2022-09-26T13:02:42.823Z,2.17
2022-09-26T13:05:51.420Z,1.45
2022-09-26T13:08:59.924Z,3.15
2022-09-26T13:11:58.222Z,2.10
2022-09-26T13:15:01.925Z,1.83
2022-09-26T13:17:42.813Z,1.80
2022-09-26T13:20:19.955Z,1.50
2022-09-26T13:22:56.058Z,1.58
2022-09-26T13:25:38.245Z,1.95
2022-09-26T13:28:31.641Z,2.25
2022-09-26T13:31:06.841Z,1.75
2022-09-26T13:33:44.029Z,5.30
2022-09-26T13:36:15.691Z,1.95
2022-09-26T13:38:52.771Z,2.90
2022-09-26T13:41:37.734Z,2.05
2022-09-26T13:44:29.586Z,4.10
2022-09-26T13:47:15.329Z,2.53
2022-09-26T13:49:56.430Z,2.50
2022-09-26T13:52:32.786Z,2.80
2022-09-26T13:55:16.319Z,4.68
2022-09-26T13:57:54.458Z,2.70
2022-09-26T14:00:39.552Z,2.92
2022-09-26T14:03:16.615Z,2.80
2022-09-26T14:05:49.027Z,2.47
2022-09-26T14:08:55.937Z,3.03
2022-09-26T14:11:31.939Z,2.67
2022-09-26T14:14:20.346Z,2.47
2022-09-26T14:17:04.386Z,4.18
2022-09-26T14:19:50.833Z,3.10
2022-09-26T14:22:21.862Z,1.98
2022-09-26T14:24:52.847Z,2.45
2022-09-26T14:27:38.000Z,2.22
2022-09-26T14:30:30.886Z,2.10
2022-09-26T14:33:14.137Z,3.00
2022-09-26T14:35:44.663Z,2.47
2022-09-26T14:38:21.896Z,2.40
2022-09-26T14:40:59.101Z,1.83
2022-09-26T14:43:33.501Z,2.90
2022-09-26T14:46:24.036Z,2.10
2022-09-26T14:49:04.466Z,1.48
2022-09-26T14:51:38.199Z,2.00
2022-09-26T14:54:26.650Z,4.95
2022-09-26T14:57:05.948Z,2.22
2022-09-26T14:59:35.813Z,2.05
2022-09-26T15:02:35.478Z,2.42
2022-09-26T15:05:26.005Z,2.20
2022-09-26T15:07:58.112Z,2.13
2022-09-26T15:10:42.387Z,1.58
2022-09-26T15:13:38.615Z,3.45
2022-09-26T15:16:27.994Z,2.22
2022-09-26T15:19:14.696Z,3.47
2022-09-26T15:21:50.289Z,2.60
2022-09-26T15:24:31.125Z,1.95
2022-09-26T15:27:28.277Z,2.22
2022-09-26T15:30:17.177Z,2.33
2022-09-26T15:32:51.578Z,2.20
2022-09-26T15:35:21.632Z,2.45
2022-09-26T15:37:51.432Z,2.85
2022-09-26T15:40:26.821Z,2.42
2022-09-26T15:43:23.399Z,2.20
2022-09-26T15:46:05.811Z,2.90
2022-09-26T15:48:45.551Z,2.60
2022-09-26T15:51:26.689Z,2.70
2022-09-26T15:56:39.838Z,2.58
2022-09-26T15:59:27.534Z,3.00
2022-09-26T16:01:57.938Z,2.38
2022-09-26T16:04:30.816Z,2.47
2022-09-26T16:07:21.743Z,2.47
2022-09-26T16:09:53.054Z,2.72
2022-09-26T16:12:32.862Z,2.85
2022-09-26T16:15:05.277Z,2.10
2022-09-26T16:17:39.861Z,2.47
2022-09-26T16:20:19.990Z,2.25
2022-09-26T16:23:04.136Z,2.80
2022-09-26T16:25:49.174Z,2.33
2022-09-26T16:28:20.084Z,2.42
2022-09-26T16:31:09.500Z,2.17
2022-09-26T16:33:43.634Z,2.33
2022-09-26T16:36:24.705Z,2.83
2022-09-26T16:39:06.992Z,2.35
2022-09-26T16:42:03.707Z,2.58
2022-09-26T16:44:37.326Z,2.13
2022-09-26T16:47:27.646Z,3.53
2022-09-26T16:49:57.569Z,2.28
2022-09-26T16:52:37.761Z,2.90
2022-09-26T16:55:08.312Z,2.15
2022-09-26T16:57:52.668Z,2.47
2022-09-26T17:00:44.816Z,1.92
2022-09-26T17:03:37.676Z,2.42
2022-09-26T17:06:07.735Z,1.80
2022-09-26T17:08:37.851Z,2.10
2022-09-26T17:11:16.499Z,2.10
2022-09-26T17:13:48.394Z,2.05
2022-09-26T17:16:18.675Z,2.08
2022-09-26T17:18:48.480Z,1.83
2022-09-26T17:21:18.269Z,2.20
2022-09-26T17:23:49.979Z,2.30
2022-09-26T17:26:22.854Z,2.70
2022-09-26T17:28:54.816Z,2.08
2022-09-26T17:31:25.073Z,1.67
2022-09-26T17:33:55.944Z,2.88
2022-09-26T17:36:29.942Z,6.15
2022-09-26T17:39:01.660Z,2.40
2022-09-26T17:41:33.771Z,2.13
2022-09-26T17:44:03.617Z,2.00
2022-09-26T17:46:33.532Z,2.58
2022-09-26T17:49:06.361Z,2.22
2022-09-26T17:51:37.383Z,2.00
2022-09-26T17:54:09.050Z,1.90
2022-09-26T17:56:39.096Z,2.17
2022-09-26T17:59:24.311Z,1.85
2022-09-26T18:02:07.011Z,2.25
2022-09-26T18:04:37.315Z,2.28
2022-09-26T18:07:07.089Z,2.08
2022-09-26T18:09:37.342Z,2.72
2022-09-26T18:12:10.087Z,2.42
2022-09-26T18:14:42.141Z,2.20
2022-09-26T18:17:19.579Z,2.30
2022-09-26T18:19:51.648Z,2.30
2022-09-26T18:22:28.622Z,3.38
2022-09-26T18:25:05.840Z,2.92
2022-09-26T18:27:45.854Z,2.20
2022-09-26T18:30:16.941Z,2.20
2022-09-26T18:32:52.394Z,2.13
2022-09-26T18:35:28.457Z,2.50
2022-09-26T18:37:59.175Z,2.55
2022-09-26T18:40:31.192Z,3.38
2022-09-26T18:43:01.492Z,2.92
2022-09-26T18:45:37.937Z,2.50
2022-09-26T18:48:09.386Z,2.67
2022-09-26T18:50:40.804Z,1.95
2022-09-26T18:53:23.255Z,2.72
2022-09-26T18:56:11.304Z,2.50
2022-09-26T18:58:41.517Z,2.63
2022-09-26T19:01:17.549Z,2.83
2022-09-26T19:03:49.618Z,2.05
2022-09-26T19:06:21.167Z,2.40
2022-09-26T19:09:03.262Z,2.50
2022-09-26T19:11:35.700Z,2.50
2022-09-26T19:14:19.676Z,2.78
2022-09-26T19:16:51.494Z,2.30
2022-09-26T19:19:22.571Z,2.40
2022-09-26T19:21:54.279Z,2.83
2022-09-26T19:24:27.494Z,2.47
2022-09-26T19:27:06.499Z,2.70
2022-09-26T19:29:44.828Z,2.67
2022-09-26T19:32:25.724Z,2.42
2022-09-26T19:34:58.609Z,2.72
2022-09-26T19:37:29.114Z,2.67
2022-09-26T19:39:59.234Z,2.83
2022-09-26T19:42:28.954Z,2.47
2022-09-26T19:45:00.303Z,2.33
2022-09-26T19:47:34.517Z,2.53
2022-09-26T19:50:05.336Z,2.60
2022-09-26T19:52:35.661Z,3.05
2022-09-26T19:55:13.479Z,3.10
2022-09-26T19:57:43.664Z,2.70
2022-09-26T20:00:14.281Z,2.67
2022-09-26T20:02:44.780Z,2.95
2022-09-26T20:05:22.331Z,2.55
2022-09-26T20:07:54.619Z,2.30
2022-09-26T20:10:28.545Z,2.53
2022-09-26T20:12:58.618Z,2.55
2022-09-26T20:15:28.348Z,2.42
2022-09-26T20:17:59.552Z,2.38
2022-09-26T20:20:29.754Z,3.28
2022-09-26T20:23:00.018Z,2.40
2022-09-26T20:25:34.099Z,2.55
2022-09-26T20:28:04.113Z,2.60
2022-09-26T20:30:51.879Z,2.38
2022-09-26T20:33:23.853Z,2.40
2022-09-26T20:36:05.896Z,2.45
2022-09-26T20:39:04.271Z,2.20
2022-09-26T20:41:41.561Z,2.28
2022-09-26T20:44:17.002Z,2.65
2022-09-26T20:46:51.389Z,3.70
2022-09-26T20:49:28.443Z,2.78
2022-09-26T20:52:01.555Z,2.40
2022-09-26T20:54:33.894Z,2.65
2022-09-26T20:57:03.950Z,2.42
2022-09-26T20:59:36.169Z,2.22
2022-09-26T21:02:32.033Z,2.38
2022-09-26T21:05:02.993Z,2.45
2022-09-26T21:07:34.204Z,2.20
2022-09-26T21:10:10.650Z,2.58
2022-09-26T21:12:41.025Z,2.28
2022-09-26T21:15:13.825Z,2.42
2022-09-26T21:17:44.410Z,2.13
2022-09-26T21:20:27.597Z,2.40
2022-09-26T21:23:20.469Z,2.50
2022-09-26T21:25:51.519Z,2.90
2022-09-26T21:28:27.671Z,2.72
2022-09-26T21:31:04.471Z,2.53
2022-09-26T21:33:35.981Z,3.65
2022-09-26T21:36:09.524Z,3.25
2022-09-26T21:38:41.682Z,3.35
2022-09-26T21:41:12.938Z,2.97
2022-09-26T21:43:47.602Z,3.20
2022-09-26T21:46:18.529Z,2.95
2022-09-26T21:48:49.509Z,3.05
2022-09-26T21:51:20.365Z,2.70
2022-09-26T21:53:57.671Z,3.05
2022-09-26T21:56:32.727Z,2.45
2022-09-26T21:59:03.144Z,3.40
2022-09-26T22:01:32.986Z,3.20
2022-09-26T22:04:02.973Z,3.42
2022-09-26T22:06:34.405Z,3.50
2022-09-26T22:09:04.340Z,3.08
2022-09-26T22:11:34.150Z,2.80
2022-09-26T22:14:04.392Z,3.28
2022-09-26T22:16:34.524Z,3.40
2022-09-26T22:19:06.293Z,2.92
2022-09-26T22:21:36.512Z,3.20
2022-09-26T22:24:07.253Z,3.13
2022-09-26T22:26:37.093Z,3.05
2022-09-26T22:29:06.845Z,3.25
2022-09-26T22:31:37.236Z,2.47
2022-09-26T22:34:07.077Z,2.90
2022-09-26T22:36:37.099Z,3.22
2022-09-26T22:39:07.496Z,3.83
2022-09-26T22:41:37.241Z,4.05
2022-09-26T22:44:06.936Z,3.47
2022-09-26T22:46:37.580Z,3.88
2022-09-26T22:49:07.356Z,3.85
2022-09-26T22:51:37.050Z,3.22
2022-09-26T22:54:07.350Z,2.92
2022-09-26T22:56:37.056Z,3.17
2022-09-26T22:59:06.985Z,4.07
2022-09-26T23:01:36.813Z,3.92
2022-09-26T23:04:06.672Z,3.47
2022-09-26T23:06:36.360Z,3.15
2022-09-26T23:09:06.561Z,4.53
2022-09-26T23:11:36.267Z,4.22
2022-09-26T23:14:06.018Z,3.38
2022-09-26T23:16:35.904Z,3.92
2022-09-26T23:19:05.731Z,3.92
2022-09-26T23:21:35.423Z,3.75
2022-09-26T23:24:05.345Z,4.25
2022-09-26T23:26:35.010Z,4.28
2022-09-26T23:29:04.807Z,4.72
2022-09-26T23:31:34.495Z,3.90
2022-09-26T23:34:04.369Z,3.92
2022-09-26T23:36:34.078Z,4.00
2022-09-26T23:39:03.832Z,3.83
2022-09-26T23:41:33.742Z,3.85
2022-09-26T23:44:03.732Z,3.15
2022-09-26T23:46:33.501Z,3.20
2022-09-26T23:49:03.254Z,3.15
2022-09-26T23:51:34.293Z,4.22
2022-09-26T23:54:04.346Z,3.75
2022-09-26T23:56:34.032Z,3.80
2022-09-26T23:59:04.068Z,4.30
